Time;durP1;ratioP1;P1;durP2;ratioP2;P2;SDS_P1;SDS_P2;PMS_P1;PMS_P2;Temp;Humidity;BMP_temperature;BMP_pressure;BME280_temperature;BME280_humidity;BME280_pressure;Samples;Min_cycle;Max_cycle;Signal;HPM_P1;HPM_P2
2022/03/17 00:01:43;;;;;;;2.70;0.90;;;18.00;35.30;20.70;94253.00;;;;10315982;28;45216;-60
2022/03/17 00:06:44;;;;;;;1.80;1.13;;;18.00;35.30;20.70;94253.00;;;;10314366;28;46331;-59
2022/03/17 00:11:45;;;;;;;1.25;0.98;;;18.00;35.30;20.70;94253.00;;;;10314117;28;45444;-60
2022/03/17 00:16:46;;;;;;;2.50;1.10;;;18.00;35.20;20.70;94263.00;;;;10313741;28;46822;-59
2022/03/17 00:21:46;;;;;;;1.50;1.00;;;18.00;35.30;20.60;94253.00;;;;10315406;28;46022;-60
2022/03/17 00:26:47;;;;;;;2.17;0.95;;;18.00;35.20;20.60;94254.00;;;;10297315;28;48258;-60
2022/03/17 00:31:48;;;;;;;2.17;0.90;;;18.00;35.20;20.60;94261.00;;;;10313806;28;48187;-60
2022/03/17 00:36:48;;;;;;;1.10;0.73;;;18.00;35.30;20.60;94252.00;;;;10313422;28;46575;-60
2022/03/17 00:41:49;;;;;;;1.15;0.85;;;18.00;35.30;20.60;94256.00;;;;10314745;28;46548;-60
2022/03/17 00:46:50;;;;;;;1.90;0.90;;;18.00;35.30;20.60;94260.00;;;;10314623;28;45204;-60
2022/03/17 00:51:50;;;;;;;1.25;1.02;;;17.90;35.20;20.60;94261.00;;;;10313626;28;46395;-61
2022/03/17 00:56:51;;;;;;;2.17;1.00;;;17.90;35.20;20.60;94254.00;;;;10313763;28;45261;-60
2022/03/17 01:01:52;;;;;;;1.60;0.85;;;18.00;35.30;20.60;94260.00;;;;10312483;28;45486;-60
2022/03/17 01:06:52;;;;;;;1.80;1.10;;;17.90;35.20;20.60;94260.00;;;;10312024;28;48277;-59
2022/03/17 01:11:53;;;;;;;2.10;1.00;;;17.90;35.20;20.50;94267.00;;;;10312293;28;46712;-60
2022/03/17 01:16:54;;;;;;;1.15;0.75;;;17.90;35.20;20.60;94274.00;;;;10312238;28;45387;-60
2022/03/17 01:21:55;;;;;;;1.88;1.00;;;17.90;35.20;20.60;94258.00;;;;10311668;28;45319;-60
2022/03/17 01:26:55;;;;;;;1.63;1.00;;;17.90;35.20;20.50;94271.00;;;;10311621;28;45439;-60
2022/03/17 01:31:56;;;;;;;2.05;1.05;;;17.90;35.20;20.50;94260.00;;;;10312294;28;46674;-61
2022/03/17 01:36:57;;;;;;;1.42;0.90;;;17.90;35.20;20.50;94283.00;;;;10311084;28;46096;-60
2022/03/17 01:41:58;;;;;;;1.98;0.90;;;17.90;35.20;20.50;94283.00;;;;10312541;28;46181;-60
2022/03/17 01:52:19;;;;;;;1.42;0.90;;;17.90;35.30;20.50;94283.00;;;;10312132;28;45211;-60
2022/03/17 01:57:22;;;;;;;1.85;0.80;;;17.90;35.20;20.50;94276.00;;;;10310743;28;45405;-60
2022/03/17 02:02:24;;;;;;;2.17;0.82;;;17.90;35.20;20.50;94279.00;;;;10312162;28;45968;-60
2022/03/17 02:07:25;;;;;;;1.20;0.80;;;17.90;35.20;20.50;94273.00;;;;10317669;28;46476;-60
2022/03/17 02:17:44;;;;;;;1.10;0.65;;;17.80;35.20;20.50;94273.00;;;;10318332;28;45162;-60
2022/03/17 02:22:49;;;;;;;1.65;0.90;;;17.80;35.20;20.50;94274.00;;;;10317926;28;46778;-60
2022/03/17 02:27:50;;;;;;;1.63;0.93;;;17.80;35.20;20.50;94271.00;;;;10317367;28;48620;-60
2022/03/17 02:32:59;;;;;;;0.70;0.63;;;17.80;35.20;20.50;94276.00;;;;10317169;28;46363;-60
2022/03/17 02:38:04;;;;;;;1.38;0.85;;;17.80;35.20;20.40;94273.00;;;;10317135;28;47021;-60
2022/03/17 02:43:05;;;;;;;1.88;0.98;;;17.80;35.20;20.40;94283.00;;;;10317011;28;47128;-60
2022/03/17 02:48:06;;;;;;;1.05;0.77;;;17.80;35.20;20.40;94264.00;;;;10316748;28;46882;-60
2022/03/17 02:53:10;;;;;;;1.38;0.82;;;17.80;35.20;20.40;94267.00;;;;10316486;28;45388;-60
2022/03/17 02:58:13;;;;;;;1.27;0.88;;;17.80;35.20;20.40;94279.00;;;;10317643;28;45353;-60
2022/03/17 03:03:17;;;;;;;1.65;0.95;;;17.80;35.20;20.40;94277.00;;;;10316071;28;45494;-60
2022/03/17 03:08:17;;;;;;;1.40;0.90;;;17.80;35.20;20.40;94282.00;;;;10315854;28;46874;-60
2022/03/17 03:13:18;;;;;;;1.98;0.77;;;17.80;35.20;20.40;94291.00;;;;10315913;28;45331;-60
2022/03/17 03:18:19;;;;;;;1.20;0.80;;;17.80;35.20;20.40;94291.00;;;;10317193;28;45449;-60
2022/03/17 03:23:20;;;;;;;1.13;0.82;;;17.80;35.20;20.40;94311.00;;;;10315723;28;45797;-60
2022/03/17 03:28:20;;;;;;;1.77;0.70;;;17.80;35.20;20.40;94292.00;;;;10315892;28;45228;-60
2022/03/17 03:33:21;;;;;;;2.38;1.25;;;17.70;35.20;20.30;94317.00;;;;10315231;28;46784;-60
2022/03/17 03:38:22;;;;;;;1.45;0.70;;;17.80;35.20;20.40;94317.00;;;;10315154;28;45409;-60
2022/03/17 03:43:23;;;;;;;1.52;1.10;;;17.80;35.20;20.40;94337.00;;;;10315141;28;46571;-60
2022/03/17 03:48:23;;;;;;;1.38;0.88;;;17.80;35.20;20.40;94336.00;;;;10314778;28;45398;-60
2022/03/17 03:54:12;;;;;;;3.00;0.95;;;17.70;35.10;20.40;94342.00;;;;10315998;28;45282;-59
2022/03/17 03:58:45;;;;;;;1.85;0.85;;;17.70;35.10;20.40;94326.00;;;;10314485;28;46096;-60
2022/03/17 04:03:45;;;;;;;1.40;0.75;;;17.70;35.20;20.40;94340.00;;;;10315900;28;45631;-60
2022/03/17 04:08:46;;;;;;;1.42;0.80;;;17.70;35.10;20.40;94340.00;;;;10314228;28;45310;-60
2022/03/17 04:13:47;;;;;;;2.38;0.82;;;17.70;35.10;20.40;94334.00;;;;10315487;28;45313;-60
2022/03/17 04:18:48;;;;;;;1.98;0.80;;;17.70;35.20;20.40;94355.00;;;;10313701;28;45800;-60
2022/03/17 04:23:50;;;;;;;2.22;0.90;;;17.70;35.10;20.30;94352.00;;;;10313387;28;45423;-59
2022/03/17 04:28:51;;;;;;;1.50;0.90;;;17.70;35.10;20.30;94347.00;;;;10313475;28;47037;-60
2022/03/17 04:33:51;;;;;;;1.92;0.80;;;17.70;35.10;20.30;94349.00;;;;10313391;28;45207;-60
2022/03/17 04:38:52;;;;;;;1.75;0.90;;;17.70;35.10;20.30;94366.00;;;;10313244;28;47248;-60
2022/03/17 04:43:53;;;;;;;1.15;0.90;;;17.70;35.10;20.30;94360.00;;;;10314745;28;46352;-60
2022/03/17 04:48:54;;;;;;;1.75;0.85;;;17.70;35.10;20.30;94377.00;;;;10313214;28;45390;-60
2022/03/17 04:53:55;;;;;;;2.08;0.77;;;17.70;35.10;20.30;94378.00;;;;10296323;28;47394;-60
2022/03/17 04:58:55;;;;;;;1.30;0.93;;;17.60;35.10;20.30;94361.00;;;;10312539;28;45206;-60
2022/03/17 05:03:56;;;;;;;1.83;0.90;;;17.70;35.10;20.30;94389.00;;;;10296142;28;46931;-60
2022/03/17 05:08:59;;;;;;;4.18;1.00;;;17.70;35.10;20.30;94394.00;;;;10312527;28;45249;-60
2022/03/17 05:13:59;;;;;;;1.10;0.82;;;17.70;35.10;20.40;94392.00;;;;10312311;28;46179;-60
2022/03/17 05:19:00;;;;;;;1.52;0.90;;;17.70;35.10;20.40;94401.00;;;;10313157;28;45303;-61
2022/03/17 05:24:01;;;;;;;1.45;0.90;;;17.70;35.10;20.40;94429.00;;;;10313249;28;46735;-60
2022/03/17 05:29:01;;;;;;;1.33;0.70;;;17.80;35.00;20.40;94425.00;;;;10312899;28;45245;-60
2022/03/17 05:34:02;;;;;;;1.73;0.90;;;17.80;35.00;20.50;94422.00;;;;10310691;28;46736;-60
2022/03/17 05:39:03;;;;;;;1.67;0.80;;;17.90;34.90;20.50;94414.00;;;;10311246;28;47182;-60
2022/03/17 05:44:04;;;;;;;1.77;0.90;;;17.90;34.90;20.50;94420.00;;;;10313132;28;46510;-60
2022/03/17 05:49:05;;;;;;;1.67;0.93;;;17.90;34.90;20.50;94425.00;;;;10311004;28;47203;-60
2022/03/17 05:54:06;;;;;;;1.42;0.95;;;17.90;34.90;20.50;94434.00;;;;10315295;28;46494;-60
2022/03/17 05:59:06;;;;;;;0.90;0.80;;;18.00;35.00;20.60;94423.00;;;;10333311;28;45252;-60
2022/03/17 06:04:07;;;;;;;2.08;1.00;;;18.00;34.80;20.60;94440.00;;;;10328500;28;46969;-59
2022/03/17 06:09:07;;;;;;;1.52;1.00;;;18.00;34.80;20.60;94450.00;;;;10328545;28;45378;-60
2022/03/17 06:14:08;;;;;;;1.13;0.80;;;18.00;34.80;20.60;94461.00;;;;10311534;28;46754;-60
2022/03/17 06:19:09;;;;;;;1.77;0.82;;;18.10;34.80;20.60;94456.00;;;;10311370;28;45164;-60
2022/03/17 06:24:09;;;;;;;1.98;0.90;;;18.10;34.80;20.60;94462.00;;;;10311514;28;45368;-59
2022/03/17 06:29:10;;;;;;;1.95;1.00;;;18.00;34.70;20.70;94481.00;;;;10311653;28;46452;-60
2022/03/17 06:34:11;;;;;;;3.08;0.80;;;18.10;34.70;20.70;94484.00;;;;10310259;28;47183;-59
2022/03/17 06:39:11;;;;;;;2.25;0.90;;;18.10;34.70;20.70;94486.00;;;;10310373;28;45204;-60
2022/03/17 06:44:12;;;;;;;2.42;0.95;;;18.10;34.70;20.70;94482.00;;;;10316251;28;45339;-60
2022/03/17 06:49:13;;;;;;;2.05;0.82;;;18.20;34.70;20.70;94500.00;;;;10352420;28;47239;-59
2022/03/17 06:54:13;;;;;;;1.45;0.85;;;18.20;34.60;20.70;94490.00;;;;10355342;28;47337;-60
2022/03/17 06:59:14;;;;;;;1.48;0.90;;;18.20;34.60;20.70;94500.00;;;;10353018;28;46554;-59
2022/03/17 07:04:15;;;;;;;2.20;0.90;;;18.10;34.50;20.80;94498.00;;;;10353109;28;45658;-59
2022/03/17 07:09:15;;;;;;;1.83;0.82;;;18.20;34.50;20.80;94498.00;;;;10372502;28;45474;-59
2022/03/17 07:14:16;;;;;;;2.22;0.90;;;18.20;34.50;20.80;94510.00;;;;10368136;28;45364;-59
2022/03/17 07:19:16;;;;;;;1.63;0.88;;;18.10;34.50;20.80;94512.00;;;;10371894;28;45304;-59
2022/03/17 07:24:17;;;;;;;1.25;1.00;;;18.20;34.50;20.80;94509.00;;;;10356335;28;47620;-59
2022/03/17 07:29:18;;;;;;;3.13;1.05;;;18.20;34.60;20.80;94516.00;;;;10372691;28;45738;-60
2022/03/17 07:34:18;;;;;;;2.97;1.00;;;18.20;34.50;20.60;94519.00;;;;10356372;28;47972;-60
2022/03/17 07:39:19;;;;;;;3.08;1.73;;;18.10;34.50;20.60;94523.00;;;;10372266;28;47291;-60
2022/03/17 07:44:20;;;;;;;7.97;1.67;;;18.10;34.60;20.50;94530.00;;;;10355790;28;48065;-59
2022/03/17 07:49:21;;;;;;;3.63;1.30;;;18.00;34.80;20.60;94521.00;;;;10372214;28;45463;-59
2022/03/17 07:54:22;;;;;;;2.72;1.20;;;18.00;34.70;20.70;94538.00;;;;10355834;28;45157;-59
2022/03/17 07:59:24;;;;;;;2.58;1.17;;;18.10;34.60;20.70;94521.00;;;;10371141;28;45192;-60
2022/03/17 08:04:25;;;;;;;2.28;1.10;;;18.10;34.50;20.80;94523.00;;;;10355247;28;47300;-60
2022/03/17 08:09:26;;;;;;;3.10;1.40;;;18.10;34.50;20.80;94545.00;;;;10371427;28;45259;-60
2022/03/17 08:14:26;;;;;;;2.75;1.00;;;18.20;34.50;20.80;94524.00;;;;10366342;28;45432;-59
2022/03/17 08:19:28;;;;;;;2.78;1.20;;;18.20;34.50;20.80;94540.00;;;;10313975;28;45647;-60
2022/03/17 08:24:28;;;;;;;2.75;1.10;;;18.20;34.50;20.80;94541.00;;;;10312797;28;45597;-60
2022/03/17 08:29:30;;;;;;;3.30;1.10;;;18.20;34.50;20.80;94535.00;;;;10313128;28;46428;-60
2022/03/17 08:34:32;;;;;;;2.17;1.05;;;18.20;34.60;20.80;94545.00;;;;10313049;28;46426;-60
2022/03/17 08:39:33;;;;;;;2.88;0.98;;;18.20;34.60;20.90;94559.00;;;;10330256;28;47328;-59
2022/03/17 08:44:33;;;;;;;2.53;1.30;;;18.30;34.70;20.90;94569.00;;;;10312122;28;48086;-60
2022/03/17 08:49:34;;;;;;;6.82;1.48;;;18.30;34.70;20.80;94574.00;;;;10313308;28;45405;-59
2022/03/17 08:54:35;;;;;;;5.75;1.40;;;18.20;34.80;20.90;94567.00;;;;10312990;28;45418;-60
2022/03/17 08:59:36;;;;;;;2.28;1.30;;;18.20;34.80;20.90;94580.00;;;;10312368;28;45345;-60
2022/03/17 09:04:38;;;;;;;3.25;1.45;;;18.30;34.90;20.90;94579.00;;;;10313460;28;46708;-61
2022/03/17 09:09:39;;;;;;;2.92;1.20;;;18.30;34.90;20.90;94567.00;;;;10312352;28;45321;-61
2022/03/17 09:14:41;;;;;;;2.22;1.27;;;18.30;34.80;20.90;94574.00;;;;10312943;28;47569;-60
2022/03/17 09:19:42;;;;;;;2.08;1.10;;;18.30;34.80;20.90;94568.00;;;;10309516;28;46424;-60
2022/03/17 09:24:46;;;;;;;2.72;1.10;;;18.30;34.80;20.90;94566.00;;;;10310825;28;45420;-60
2022/03/17 09:29:46;;;;;;;2.97;1.00;;;18.30;34.80;20.90;94558.00;;;;10312054;28;47024;-60
2022/03/17 09:34:47;;;;;;;2.10;1.08;;;18.30;34.80;20.90;94565.00;;;;10311678;28;45413;-60
2022/03/17 09:39:47;;;;;;;3.13;1.00;;;18.30;34.80;20.90;94575.00;;;;10311743;28;46722;-60
2022/03/17 09:44:54;;;;;;;2.20;1.10;;;18.30;34.70;20.90;94579.00;;;;10310742;28;46222;-60
2022/03/17 09:49:56;;;;;;;1.15;0.93;;;18.30;34.80;21.00;94588.00;;;;10309582;28;47135;-60
2022/03/17 09:54:57;;;;;;;2.13;1.15;;;18.30;34.80;21.00;94587.00;;;;10313506;28;47079;-60
2022/03/17 09:59:58;;;;;;;2.00;0.95;;;18.30;34.80;20.90;94580.00;;;;10351647;28;45434;-59
2022/03/17 10:05:00;;;;;;;1.45;1.05;;;18.30;34.80;20.90;94591.00;;;;10347179;28;46232;-59
2022/03/17 10:10:02;;;;;;;2.05;1.00;;;18.40;34.80;21.00;94589.00;;;;10365021;28;46242;-59
2022/03/17 10:15:05;;;;;;;1.42;0.95;;;18.30;34.80;21.00;94576.00;;;;10368420;28;45353;-59
2022/03/17 10:20:16;;;;;;;2.25;1.10;;;18.30;34.80;21.00;94574.00;;;;10352658;28;46059;-59
2022/03/17 10:25:20;;;;;;;3.47;1.40;;;18.40;34.80;21.00;94581.00;;;;10343545;28;47282;-60
2022/03/17 10:30:35;;;;;;;3.97;1.20;;;18.30;34.80;21.00;94589.00;;;;10341911;28;45319;-59
2022/03/17 10:35:38;;;;;;;4.45;1.40;;;18.30;34.90;21.00;94576.00;;;;10339210;28;45575;-60
2022/03/17 10:40:39;;;;;;;2.35;1.17;;;18.30;34.90;21.00;94592.00;;;;10333382;28;45627;-60
2022/03/17 10:45:40;;;;;;;2.10;1.42;;;18.40;35.00;21.00;94579.00;;;;10320764;28;45614;-59
2022/03/17 10:50:43;;;;;;;2.00;1.20;;;18.40;35.00;21.00;94592.00;;;;10317081;28;46292;-60
2022/03/17 10:55:43;;;;;;;3.08;1.10;;;18.40;35.20;21.00;94596.00;;;;10299565;28;48320;-60
2022/03/17 11:00:53;;;;;;;3.13;1.27;;;18.40;35.10;21.00;94595.00;;;;10315590;28;46245;-60
2022/03/17 11:05:54;;;;;;;1.52;1.00;;;18.30;35.10;21.00;94596.00;;;;10314973;28;46759;-60
2022/03/17 11:10:55;;;;;;;1.70;1.20;;;18.40;35.10;21.00;94603.00;;;;10314770;28;48336;-60
2022/03/17 11:16:00;;;;;;;3.47;1.77;;;18.40;35.10;21.00;94604.00;;;;10314900;28;47853;-60
2022/03/17 11:21:20;;;;;;;4.18;2.00;;;18.40;35.20;21.00;94604.00;;;;10315304;28;46203;-60
2022/03/17 11:26:34;;;;;;;4.70;1.27;;;18.40;35.40;21.00;94608.00;;;;10315184;28;45689;-60
2022/03/17 11:31:57;;;;;;;1.92;1.13;;;18.40;35.20;21.00;94603.00;;;;10314214;28;47001;-60
2022/03/17 11:37:19;;;;;;;5.95;1.30;;;18.40;35.20;21.10;94605.00;;;;10363011;28;46302;-60
2022/03/17 11:42:32;;;;;;;1.63;0.98;;;18.40;35.20;21.10;94605.00;;;;10357267;28;46001;-60
2022/03/17 11:47:43;;;;;;;2.42;1.33;;;18.50;35.20;21.10;94609.00;;;;10357569;28;45344;-60
2022/03/17 11:52:57;;;;;;;4.80;1.48;;;18.40;35.20;21.10;94596.00;;;;10372334;28;46292;-60
2022/03/17 11:58:33;;;;;;;3.13;1.23;;;18.50;35.30;20.90;94595.00;;;;10355746;28;45259;-60
2022/03/17 12:03:43;;;;;;;4.82;1.50;;;18.50;35.20;21.10;94611.00;;;;10356881;28;46804;-60
2022/03/17 12:08:46;;;;;;;2.90;1.40;;;18.50;35.40;21.10;94609.00;;;;10356153;28;45246;-59
2022/03/17 12:14:22;;;;;;;4.40;1.33;;;18.50;35.30;21.10;94607.00;;;;10356417;28;46050;-59
2022/03/17 12:19:37;;;;;;;4.50;1.42;;;18.50;35.40;21.10;94618.00;;;;10317551;28;47048;-61
2022/03/17 12:24:59;;;;;;;1.90;1.20;;;18.50;35.40;21.10;94596.00;;;;10313937;28;47903;-60
2022/03/17 12:30:12;;;;;;;3.25;1.20;;;18.50;35.40;21.10;94615.00;;;;10313383;28;47205;-61
2022/03/17 12:35:14;;;;;;;3.15;1.40;;;18.50;35.40;21.10;94606.00;;;;10313943;28;45480;-60
2022/03/17 12:40:20;;;;;;;3.03;1.33;;;18.50;35.40;21.20;94607.00;;;;10312981;28;46794;-60
2022/03/17 12:45:24;;;;;;;2.38;1.30;;;18.50;35.40;21.10;94596.00;;;;10312687;28;46499;-60
2022/03/17 12:50:29;;;;;;;4.03;1.48;;;18.50;35.30;21.20;94595.00;;;;10314408;28;45244;-60
2022/03/17 12:55:30;;;;;;;3.45;1.42;;;18.50;35.30;21.20;94603.00;;;;10313026;28;45390;-60
2022/03/17 13:00:33;;;;;;;2.35;1.05;;;18.50;35.30;21.10;94597.00;;;;10313901;28;46442;-60
2022/03/17 13:16:13;;;;;;;3.55;1.38;;;18.50;35.20;21.20;94595.00;;;;10312641;28;45213;-60
2022/03/17 13:21:17;;;;;;;5.60;2.40;;;18.50;35.20;21.10;94591.00;;;;10313161;28;45336;-60
2022/03/17 13:26:22;;;;;;;9.20;2.33;;;18.50;36.10;21.10;94598.00;;;;10295447;28;47753;-60
2022/03/17 13:31:45;;;;;;;5.53;2.50;;;18.50;36.00;21.10;94588.00;;;;10311521;28;45224;-60
2022/03/17 13:36:58;;;;;;;4.85;1.90;;;18.50;35.90;21.10;94602.00;;;;10311490;28;47103;-59
2022/03/17 13:42:06;;;;;;;6.07;2.17;;;18.50;35.80;21.10;94594.00;;;;10311516;28;47292;-60
2022/03/17 13:47:19;;;;;;;3.63;1.70;;;18.50;35.80;21.10;94591.00;;;;10311753;28;47965;-60
2022/03/17 13:52:20;;;;;;;5.72;2.00;;;18.50;35.80;21.00;94586.00;;;;10311608;28;45347;-60
2022/03/17 13:57:21;;;;;;;4.18;1.90;;;18.50;35.70;21.10;94590.00;;;;10310050;28;45320;-59
2022/03/17 14:02:22;;;;;;;4.20;2.08;;;18.50;35.80;21.10;94601.00;;;;10311518;28;45679;-60
2022/03/17 14:07:23;;;;;;;4.00;2.00;;;18.50;35.80;21.10;94588.00;;;;10311190;28;46914;-60
2022/03/17 14:12:24;;;;;;;5.82;1.95;;;18.50;35.70;21.10;94577.00;;;;10310796;28;46520;-60
2022/03/17 14:17:24;;;;;;;6.13;1.80;;;18.50;35.80;21.10;94584.00;;;;10310425;28;46541;-60
2022/03/17 14:27:44;;;;;;;4.22;1.60;;;18.50;35.90;21.10;94587.00;;;;10311016;28;45425;-60
2022/03/17 14:32:45;;;;;;;3.88;1.80;;;18.50;35.90;21.10;94588.00;;;;10310172;28;47318;-60
2022/03/17 14:37:45;;;;;;;5.55;2.10;;;18.50;36.00;21.10;94598.00;;;;10311152;28;45218;-60
2022/03/17 14:42:49;;;;;;;5.85;1.90;;;18.50;35.80;21.10;94599.00;;;;10293474;28;47820;-60
2022/03/17 14:47:49;;;;;;;3.45;1.98;;;18.50;36.00;21.10;94598.00;;;;10311335;28;47008;-60
2022/03/17 14:52:52;;;;;;;4.78;1.85;;;18.50;36.10;21.10;94604.00;;;;10310088;28;45372;-60
2022/03/17 14:57:53;;;;;;;7.43;2.10;;;18.50;36.10;21.10;94603.00;;;;10309346;28;46988;-60
2022/03/17 15:02:55;;;;;;;4.45;1.70;;;18.50;36.10;21.10;94604.00;;;;10309811;28;45715;-60
2022/03/17 15:07:56;;;;;;;4.10;1.67;;;18.50;36.10;21.10;94591.00;;;;10314083;28;48009;-59
2022/03/17 15:12:57;;;;;;;5.90;1.98;;;18.50;36.10;21.10;94589.00;;;;10299749;28;47105;-60
2022/03/17 15:17:58;;;;;;;3.92;1.67;;;18.50;36.10;21.10;94596.00;;;;10299481;28;47246;-60
2022/03/17 15:22:59;;;;;;;3.70;1.90;;;18.50;36.20;21.10;94610.00;;;;10317160;28;45208;-60
2022/03/17 15:33:19;;;;;;;4.10;1.70;;;18.50;36.20;21.10;94603.00;;;;10316708;28;45718;-60
2022/03/17 15:38:20;;;;;;;4.22;1.65;;;18.40;36.30;21.10;94604.00;;;;10316887;28;46210;-60
2022/03/17 15:43:22;;;;;;;3.80;1.70;;;18.40;36.30;21.10;94605.00;;;;10327010;28;45460;-60
2022/03/17 15:48:23;;;;;;;5.88;1.50;;;18.40;36.20;21.10;94618.00;;;;10336084;28;45174;-60
2022/03/17 15:53:23;;;;;;;5.00;1.60;;;18.40;36.40;21.10;94622.00;;;;10325601;28;47245;-60
2022/03/17 15:58:24;;;;;;;4.00;1.77;;;18.40;36.40;21.10;94621.00;;;;10314676;28;45359;-60
2022/03/17 16:03:25;;;;;;;4.82;2.20;;;18.40;36.50;21.10;94632.00;;;;10314646;28;45407;-60
2022/03/17 16:08:26;;;;;;;2.85;1.67;;;18.50;36.50;21.10;94634.00;;;;10314913;28;46465;-60
2022/03/17 16:18:47;;;;;;;4.13;2.00;;;18.50;36.50;21.10;94649.00;;;;10313511;28;45251;-60
2022/03/17 16:23:48;;;;;;;3.38;1.70;;;18.40;36.60;21.10;94649.00;;;;10333220;28;47151;-59
2022/03/17 16:28:49;;;;;;;5.07;2.35;;;18.50;36.60;21.10;94647.00;;;;10370034;28;45327;-60
2022/03/17 16:33:52;;;;;;;5.18;2.65;;;18.50;36.70;21.10;94659.00;;;;10354987;28;46211;-60
2022/03/17 16:38:58;;;;;;;5.80;2.35;;;18.50;37.90;21.00;94659.00;;;;10364669;28;45312;-60
2022/03/17 16:43:58;;;;;;;6.35;2.15;;;18.40;37.20;21.10;94659.00;;;;10352085;28;48251;-60
2022/03/17 16:48:59;;;;;;;5.18;2.00;;;18.50;37.20;21.10;94674.00;;;;10348532;28;45179;-60
2022/03/17 16:54:00;;;;;;;7.57;2.20;;;18.40;36.90;21.10;94670.00;;;;10317441;28;47181;-59
2022/03/17 16:59:01;;;;;;;4.53;2.22;;;18.40;37.10;21.10;94693.00;;;;10341313;28;46526;-59
2022/03/17 17:04:02;;;;;;;5.65;1.83;;;18.40;37.20;21.10;94682.00;;;;10320803;28;46363;-59
2022/03/17 17:09:03;;;;;;;4.55;1.65;;;18.40;37.00;21.10;94698.00;;;;10328350;28;47228;-60
2022/03/17 17:14:04;;;;;;;5.20;1.98;;;18.40;37.10;21.10;94704.00;;;;10351267;28;45299;-59
2022/03/17 17:19:05;;;;;;;3.42;1.52;;;18.40;37.00;21.10;94710.00;;;;10332002;28;47091;-60
2022/03/17 17:34:43;;;;;;;5.20;1.88;;;18.50;37.20;21.10;94747.00;;;;10311637;28;45202;-59
2022/03/17 17:39:45;;;;;;;4.07;1.92;;;18.40;36.90;21.10;94736.00;;;;10313202;28;46945;-59
2022/03/17 17:44:46;;;;;;;3.38;1.40;;;18.40;37.00;21.10;94757.00;;;;10351967;28;48066;-59
2022/03/17 17:49:46;;;;;;;4.43;1.65;;;18.40;37.00;21.10;94756.00;;;;10340567;28;45300;-59
2022/03/17 17:54:47;;;;;;;4.85;1.90;;;18.40;37.00;21.10;94763.00;;;;10369238;28;45256;-60
2022/03/17 17:59:48;;;;;;;3.22;1.77;;;18.40;37.00;21.10;94772.00;;;;10361344;28;45401;-60
2022/03/17 18:04:48;;;;;;;4.30;1.75;;;18.40;36.90;21.10;94779.00;;;;10352552;28;45146;-59
2022/03/17 18:09:49;;;;;;;3.10;1.30;;;18.40;36.90;21.10;94785.00;;;;10362595;28;45396;-60
2022/03/17 18:14:52;;;;;;;3.67;1.70;;;18.40;36.90;21.10;94773.00;;;;10367414;28;45270;-61
2022/03/17 18:19:53;;;;;;;2.30;1.40;;;18.40;36.90;21.10;94777.00;;;;10350855;28;46555;-59
2022/03/17 18:24:54;;;;;;;4.55;1.90;;;18.40;36.90;21.10;94789.00;;;;10367487;28;47604;-59
2022/03/17 18:29:55;;;;;;;4.68;2.13;;;18.40;36.90;21.10;94821.00;;;;10367476;28;46033;-59
2022/03/17 18:34:56;;;;;;;5.80;2.80;;;18.40;36.90;21.10;94821.00;;;;10352440;28;46171;-60
2022/03/17 18:39:57;;;;;;;4.38;2.55;;;18.40;36.90;21.10;94836.00;;;;10367793;28;45235;-60
2022/03/17 18:44:57;;;;;;;3.17;2.30;;;18.50;36.90;21.10;94831.00;;;;10357817;28;46904;-60
2022/03/17 18:49:58;;;;;;;5.20;2.78;;;18.40;36.70;21.10;94848.00;;;;10345886;28;47757;-61
2022/03/17 18:54:59;;;;;;;4.95;2.80;;;18.40;36.70;21.10;94858.00;;;;10351957;28;47122;-61
2022/03/17 19:00:00;;;;;;;4.40;2.58;;;18.50;36.90;21.10;94867.00;;;;10320507;28;46633;-61
2022/03/17 19:05:00;;;;;;;4.43;2.40;;;18.50;36.90;21.10;94878.00;;;;10321099;28;45629;-61
2022/03/17 19:10:03;;;;;;;5.22;2.90;;;18.50;36.80;21.10;94877.00;;;;10348500;28;45644;-61
2022/03/17 19:15:05;;;;;;;4.25;2.60;;;18.40;36.80;21.10;94896.00;;;;10336209;28;45162;-61
2022/03/17 19:20:08;;;;;;;4.43;2.63;;;18.50;36.80;21.10;94898.00;;;;10343291;28;46233;-61
2022/03/17 19:25:09;;;;;;;4.07;2.70;;;18.50;36.80;21.10;94913.00;;;;10343711;28;46044;-61
2022/03/17 19:30:10;;;;;;;4.10;2.60;;;18.50;36.80;21.10;94906.00;;;;10321423;28;47058;-61
2022/03/17 19:35:11;;;;;;;3.80;2.65;;;18.50;36.80;21.10;94922.00;;;;10331575;28;46645;-61
2022/03/17 19:40:12;;;;;;;4.28;2.70;;;18.50;36.70;21.10;94941.00;;;;10315022;28;45434;-60
2022/03/17 19:45:13;;;;;;;4.10;2.70;;;18.50;36.70;21.10;94934.00;;;;10298399;28;48440;-60
2022/03/17 19:55:33;;;;;;;5.15;2.53;;;18.50;36.60;21.10;94964.00;;;;10313897;28;45797;-61
2022/03/17 20:00:34;;;;;;;4.47;2.80;;;18.50;36.50;21.10;94974.00;;;;10298486;28;47822;-61
2022/03/17 20:05:35;;;;;;;4.38;3.05;;;18.40;36.50;21.10;94986.00;;;;10314769;28;46693;-61
2022/03/17 20:15:55;;;;;;;3.85;3.00;;;18.50;36.60;21.10;94974.00;;;;10315546;28;45738;-60
2022/03/17 20:20:56;;;;;;;4.53;3.00;;;18.50;36.40;21.10;94983.00;;;;10313411;28;47600;-61
2022/03/17 20:25:58;;;;;;;3.72;2.67;;;18.50;36.40;21.10;94996.00;;;;10330426;28;45948;-61
2022/03/17 20:31:01;;;;;;;4.13;3.00;;;18.50;36.30;21.10;94986.00;;;;10329770;28;46512;-60
2022/03/17 20:36:01;;;;;;;3.50;2.78;;;18.50;36.30;21.10;95005.00;;;;10313190;28;47170;-60
2022/03/17 20:41:04;;;;;;;4.30;2.97;;;18.50;36.30;21.20;94999.00;;;;10314794;28;46091;-60
2022/03/17 20:46:05;;;;;;;5.25;3.25;;;18.50;36.20;21.10;95007.00;;;;10329873;28;45755;-60
2022/03/17 20:51:06;;;;;;;4.45;3.30;;;18.50;36.20;21.20;95016.00;;;;10313231;28;45369;-61
2022/03/17 20:56:07;;;;;;;5.13;3.60;;;18.50;36.10;21.10;95025.00;;;;10296565;28;45676;-60
2022/03/17 21:01:08;;;;;;;5.57;3.50;;;18.50;36.00;21.20;95033.00;;;;10312520;28;47181;-60
2022/03/17 21:06:09;;;;;;;5.25;3.05;;;18.50;36.10;21.20;95033.00;;;;10312137;28;47921;-61
2022/03/17 21:11:09;;;;;;;4.72;3.38;;;18.50;36.10;21.10;95023.00;;;;10312550;28;45457;-61
2022/03/17 21:16:10;;;;;;;5.15;3.63;;;18.50;35.90;21.20;95012.00;;;;10295747;28;47904;-61
2022/03/17 21:21:18;;;;;;;4.88;3.53;;;18.50;35.90;21.10;95042.00;;;;10312283;28;46193;-59
2022/03/17 21:26:19;;;;;;;5.22;3.35;;;18.50;35.90;21.10;95048.00;;;;10310958;28;47100;-61
2022/03/17 21:31:21;;;;;;;5.35;3.58;;;18.50;35.80;21.10;95063.00;;;;10311579;28;46542;-61
2022/03/17 21:36:21;;;;;;;5.57;3.50;;;18.50;35.80;21.10;95036.00;;;;10311566;28;48215;-60
2022/03/17 21:41:22;;;;;;;6.15;3.75;;;18.50;35.80;21.10;95048.00;;;;10311565;28;45467;-60
2022/03/17 21:46:23;;;;;;;5.40;3.70;;;18.50;35.80;21.10;95061.00;;;;10311131;28;47797;-60
2022/03/17 21:51:24;;;;;;;4.95;3.60;;;18.40;35.80;21.00;95043.00;;;;10328253;28;45432;-61
2022/03/17 21:56:25;;;;;;;5.28;3.75;;;18.40;35.80;21.00;95047.00;;;;10312041;28;45308;-60
2022/03/17 22:01:25;;;;;;;5.38;4.00;;;18.40;35.80;21.00;95050.00;;;;10311703;28;46392;-61
2022/03/17 22:06:26;;;;;;;6.93;3.80;;;18.30;35.80;21.00;95046.00;;;;10294785;28;47848;-61
2022/03/17 22:11:27;;;;;;;5.97;3.72;;;18.30;35.80;21.00;95041.00;;;;10311127;28;45950;-60
2022/03/17 22:16:28;;;;;;;5.30;3.78;;;18.30;35.80;20.90;95053.00;;;;10312126;28;45295;-60
2022/03/17 22:21:28;;;;;;;4.85;3.72;;;18.30;35.80;20.90;95059.00;;;;10313357;28;45111;-60
2022/03/17 22:26:29;;;;;;;5.22;3.65;;;18.30;35.80;20.90;95051.00;;;;10316923;28;45468;-60
2022/03/17 22:31:30;;;;;;;5.00;3.70;;;18.30;35.80;20.90;95054.00;;;;10317913;28;45540;-60
2022/03/17 22:36:31;;;;;;;4.50;3.53;;;18.30;35.80;20.90;95065.00;;;;10317566;28;48159;-60
2022/03/17 22:41:32;;;;;;;6.45;3.65;;;18.20;35.70;20.90;95061.00;;;;10317895;28;45296;-60
2022/03/17 22:46:33;;;;;;;4.68;3.38;;;18.20;35.70;20.90;95052.00;;;;10318375;28;45141;-61
2022/03/17 22:51:38;;;;;;;6.63;3.40;;;18.20;35.80;20.90;95061.00;;;;10333999;28;46389;-60
2022/03/17 22:56:38;;;;;;;5.25;3.58;;;18.20;35.70;20.90;95069.00;;;;10333259;28;45349;-61
2022/03/17 23:01:39;;;;;;;6.43;3.55;;;18.20;35.60;20.90;95068.00;;;;10316987;28;47124;-60
2022/03/17 23:06:40;;;;;;;4.25;3.15;;;18.20;35.60;20.90;95073.00;;;;10316923;28;45399;-61